»·PEaware :: N29239 55AZ-KOXR

N29239 :: 55AZ-KOXR

FLIGHT INFORMATION

Flight Status: Arrived
Operator: Privately registered:
United States
More flights under this callsign
Pilot: Evan M. (27470)
Aircraft: SOCATA TBM-900
(TBM9)
More flights by this aircraft type
Origin: 55AZ Potters Field
United States
Destination: KOXR Oxnard
United States
More flights between these airports :: More routes between these airports
Route: POTER V94 BLH T306 PDZ V16 LAHAB T306 LAX V299 VTU
File this flight plan on PilotEdge
Remarks:
Altitude:
(Current/Filed)
26,000ft
Speed:
(Current/Filed)
250kts
Departed: 18-Feb-21 04:53 PM
Arrived: 18-Feb-21 06:24 PM
Distance/Time
Traveled:
6499nm/1:31
Distance/Time
To Go:
Arrived

Flight Plot

Page will automatically refresh every two minutes.

Flight plan parsing failed; only flown route is shown


Map Options




Map Legend


Flown Route
Filed Route
Departure Airport
Arrival Airport
Navaid (VOR, NDB)
Fix

Horizontal Profiles

Position Reports

Time Latitude Longitude Heading Altitude Ground
Speed
18-Feb-21 16:42 32.878222 -111.957833 90 1310ft 0kts
18-Feb-21 16:43 32.878222 -111.957833 90 1310ft 0kts
18-Feb-21 16:44 32.878222 -111.957833 90 1310ft 0kts
18-Feb-21 16:45 32.878222 -111.957833 90 1310ft 0kts
18-Feb-21 16:46 32.878222 -111.957833 90 1310ft 0kts
18-Feb-21 16:47 32.878222 -111.957833 90 1310ft 0kts
18-Feb-21 16:48 32.878222 -111.957833 90 1310ft 0kts
18-Feb-21 16:49 32.878222 -111.957833 90 1310ft 0kts
18-Feb-21 16:50 32.878222 -111.957833 90 1310ft 0kts
18-Feb-21 16:51 32.878150 -111.957818 241 1310ft 9kts
18-Feb-21 16:52 32.853924 -111.964764 222 2554ft 136kts
18-Feb-21 16:53 32.872090 -112.000034 320 5199ft 147kts
18-Feb-21 16:54 32.888692 -112.045688 284 8198ft 154kts
18-Feb-21 16:55 32.897600 -112.095679 292 11132ft 158kts
18-Feb-21 16:56 32.909675 -112.164019 289 12135ft 227kts
18-Feb-21 16:58 32.916008 -112.229534 290 15397ft 188kts
18-Feb-21 16:59 32.921622 -112.290862 292 17750ft 190kts
18-Feb-21 17:00 32.927439 -112.354511 293 19778ft 198kts
18-Feb-21 17:01 32.933384 -112.419585 294 22005ft 202kts
18-Feb-21 17:02 32.939991 -112.492927 291 22737ft 246kts
18-Feb-21 17:03 32.947337 -112.576381 291 23899ft 237kts
18-Feb-21 17:04 32.954114 -112.648675 295 25887ft 230kts
18-Feb-21 17:05 32.978234 -112.720908 306 26009ft 248kts
18-Feb-21 17:06 33.011864 -112.793432 309 26002ft 253kts
18-Feb-21 17:07 33.045841 -112.866514 309 26001ft 254kts
18-Feb-21 17:08 33.080025 -112.940131 309 25924ft 254kts
18-Feb-21 17:09 33.114240 -113.013930 309 25948ft 255kts
18-Feb-21 17:10 33.148426 -113.087916 309 25936ft 255kts
18-Feb-21 17:11 33.182544 -113.161852 309 25935ft 256kts
18-Feb-21 17:12 33.216807 -113.236247 309 25923ft 255kts
18-Feb-21 17:13 33.251026 -113.310734 309 25947ft 257kts
18-Feb-21 17:14 33.285323 -113.385494 309 25964ft 258kts
18-Feb-21 17:15 33.319789 -113.460793 309 25952ft 259kts
18-Feb-21 17:16 33.354181 -113.536073 308 25954ft 260kts
18-Feb-21 17:17 33.388700 -113.611778 308 25961ft 259kts
18-Feb-21 17:18 33.423157 -113.687553 308 25935ft 261kts
18-Feb-21 17:19 33.457735 -113.763755 308 25929ft 261kts
18-Feb-21 17:20 33.492287 -113.840045 308 25938ft 262kts
18-Feb-21 17:21 33.526757 -113.916819 305 25925ft 266kts
18-Feb-21 17:21 33.541705 -113.990772 293 25919ft 279kts
18-Feb-21 17:22 33.549751 -114.084569 287 25916ft 287kts
18-Feb-21 17:24 33.557597 -114.195602 288 25955ft 288kts
18-Feb-21 17:25 33.564260 -114.291075 287 25966ft 288kts
18-Feb-21 17:26 33.570855 -114.386049 288 26094ft 288kts
18-Feb-21 17:26 33.576295 -114.465589 287 26022ft 289kts
18-Feb-21 17:27 33.582763 -114.561447 287 26003ft 289kts
18-Feb-21 17:28 33.589176 -114.657165 287 25995ft 290kts
18-Feb-21 17:30 33.597553 -114.768519 288 25994ft 287kts
18-Feb-21 17:30 33.610424 -114.845385 293 25995ft 282kts
18-Feb-21 17:31 33.626128 -114.937394 292 25998ft 283kts
18-Feb-21 17:32 33.641789 -115.029819 292 26000ft 284kts
18-Feb-21 17:33 33.657403 -115.122386 292 26001ft 284kts
18-Feb-21 17:34 33.672970 -115.215083 292 26007ft 284kts
18-Feb-21 17:35 33.688554 -115.308376 292 25997ft 285kts
18-Feb-21 17:36 33.704024 -115.401485 292 26008ft 285kts
18-Feb-21 17:37 33.719485 -115.494849 292 25989ft 285kts
18-Feb-21 17:38 33.734785 -115.587675 292 25995ft 285kts
18-Feb-21 17:39 33.749992 -115.680467 292 26014ft 285kts
18-Feb-21 17:40 33.765251 -115.774202 291 26069ft 286kts
18-Feb-21 17:41 33.780441 -115.867805 291 26006ft 287kts
18-Feb-21 17:42 33.795571 -115.961643 291 25931ft 284kts
18-Feb-21 17:43 33.810596 -116.054901 291 25985ft 287kts
18-Feb-21 17:44 33.825548 -116.148408 291 25959ft 285kts
18-Feb-21 17:45 33.840409 -116.242056 291 25970ft 286kts
18-Feb-21 17:46 33.855251 -116.336022 291 26001ft 288kts
18-Feb-21 17:47 33.869567 -116.430737 289 25983ft 289kts
18-Feb-21 17:48 33.874709 -116.529153 284 26008ft 296kts
18-Feb-21 17:49 33.879451 -116.627933 284 26091ft 297kts
18-Feb-21 17:50 33.884042 -116.726865 283 26143ft 297kts
18-Feb-21 17:51 33.888527 -116.825865 284 26102ft 297kts
18-Feb-21 17:52 33.892982 -116.925474 284 26056ft 298kts
18-Feb-21 17:53 33.897367 -117.024596 284 25991ft 298kts
18-Feb-21 17:54 33.901650 -117.124104 283 25976ft 298kts
18-Feb-21 17:55 33.905857 -117.223435 283 25982ft 299kts
18-Feb-21 17:56 33.910010 -117.323417 283 25993ft 300kts
18-Feb-21 17:57 33.914084 -117.423377 283 25993ft 300kts
18-Feb-21 17:58 33.918276 -117.523166 280 25969ft 302kts
18-Feb-21 17:59 33.920201 -117.623196 281 26025ft 302kts
18-Feb-21 18:00 33.922095 -117.724287 281 26029ft 302kts
18-Feb-21 18:01 33.923808 -117.825212 280 25977ft 304kts
18-Feb-21 18:02 33.925685 -117.925735 281 25661ft 299kts
18-Feb-21 18:03 33.927216 -118.021061 281 24235ft 274kts
18-Feb-21 18:04 33.928586 -118.106188 282 23807ft 249kts
18-Feb-21 18:05 33.929663 -118.177982 281 22553ft 256kts
18-Feb-21 18:06 33.930866 -118.263565 280 20789ft 255kts
18-Feb-21 18:07 33.932029 -118.347885 280 18465ft 249kts
18-Feb-21 18:08 33.935683 -118.428421 289 15987ft 231kts
18-Feb-21 18:09 33.954605 -118.498834 297 13487ft 216kts
18-Feb-21 18:10 33.975447 -118.564484 298 10999ft 205kts
18-Feb-21 18:11 33.995022 -118.626119 297 9154ft 185kts
18-Feb-21 18:12 34.013100 -118.682688 296 8283ft 196kts
18-Feb-21 18:13 34.033273 -118.745443 297 6276ft 203kts
18-Feb-21 18:14 34.051392 -118.810797 291 5022ft 196kts
18-Feb-21 18:15 34.068931 -118.876432 291 5009ft 210kts
18-Feb-21 18:16 34.085018 -118.936474 291 5041ft 189kts
18-Feb-21 18:17 34.101396 -118.998138 291 5020ft 195kts
18-Feb-21 18:18 34.121253 -119.055377 306 4581ft 173kts
18-Feb-21 18:19 34.151865 -119.095100 329 3611ft 154kts
18-Feb-21 18:20 34.189735 -119.120995 321 2201ft 169kts
18-Feb-21 18:21 34.200248 -119.166233 273 1219ft 119kts
18-Feb-21 18:22 34.200758 -119.200624 274 75ft 75kts
18-Feb-21 18:23 34.200728 -119.216747 229 35ft 16kts
18-Feb-21 18:24 34.199864 -119.214678 90 34ft 19kts
18-Feb-21 18:25 34.199816 -119.208913 89 42ft 15kts
18-Feb-21 18:26 34.199789 -119.204708 91 48ft 12kts
18-Feb-21 18:27 34.199420 -119.200442 135 45ft 17kts
18-Feb-21 18:28 0.000408 0.013975 0 3ft 0kts

Navigation Log

Ident Type
Flight plan parsing failed, navigation log unavailable